createdAt,value
2023-01-06T00:00:50.271Z,8.22
2023-01-06T00:01:50.017Z,8.21
2023-01-06T00:02:50.018Z,8.09
2023-01-06T00:03:50.004Z,8.13
2023-01-06T00:04:50.030Z,8.24
2023-01-06T00:05:49.962Z,8.18
2023-01-06T00:06:49.956Z,8.14
2023-01-06T00:07:49.937Z,8.32
2023-01-06T00:08:49.978Z,8.12
2023-01-06T00:09:49.909Z,8.20
2023-01-06T00:10:49.888Z,8.17
2023-01-06T00:11:49.885Z,8.22
2023-01-06T00:12:49.860Z,8.17
2023-01-06T00:13:49.846Z,8.21
2023-01-06T00:14:49.833Z,8.04
2023-01-06T00:15:49.879Z,8.00
2023-01-06T00:16:49.929Z,8.09
2023-01-06T00:17:49.847Z,7.96
2023-01-06T00:18:49.785Z,8.10
2023-01-06T00:19:49.781Z,8.02
2023-01-06T00:20:49.760Z,8.07
2023-01-06T00:21:49.749Z,7.88
2023-01-06T00:22:49.725Z,7.96
2023-01-06T00:23:49.720Z,8.04
2023-01-06T00:24:49.701Z,8.02
2023-01-06T00:25:49.702Z,7.96
2023-01-06T00:26:49.680Z,8.03
2023-01-06T00:27:49.668Z,7.94
2023-01-06T00:28:49.656Z,8.02
2023-01-06T00:29:49.637Z,7.91
2023-01-06T00:30:49.675Z,7.88
2023-01-06T00:31:49.617Z,7.94
2023-01-06T00:32:49.715Z,7.92
2023-01-06T00:33:49.583Z,7.95
2023-01-06T00:34:49.565Z,7.96
2023-01-06T00:35:49.555Z,8.06
2023-01-06T00:36:49.542Z,8.03
2023-01-06T00:37:49.524Z,7.94
2023-01-06T00:38:49.513Z,7.86
2023-01-06T00:39:49.498Z,8.02
2023-01-06T00:40:49.491Z,7.96
2023-01-06T00:41:49.472Z,8.02
2023-01-06T00:42:49.480Z,7.92
2023-01-06T00:43:49.450Z,8.06
2023-01-06T00:44:49.428Z,7.94
2023-01-06T00:45:49.429Z,8.04
2023-01-06T00:46:49.412Z,8.02
2023-01-06T00:47:49.396Z,7.94
2023-01-06T00:49:03.921Z,7.96
2023-01-06T00:49:50.398Z,8.07
2023-01-06T00:50:49.350Z,8.00
2023-01-06T00:51:49.340Z,7.94
2023-01-06T00:52:49.323Z,8.03
2023-01-06T00:53:49.308Z,8.00
2023-01-06T00:54:49.304Z,8.09
2023-01-06T00:55:49.284Z,8.06
2023-01-06T00:56:49.272Z,8.13
2023-01-06T00:57:49.256Z,7.92
2023-01-06T00:58:49.244Z,8.02
2023-01-06T00:59:49.232Z,8.06
2023-01-06T01:00:49.217Z,7.95
2023-01-06T01:01:49.378Z,8.06
2023-01-06T01:02:49.326Z,8.04
2023-01-06T01:03:49.178Z,8.14
2023-01-06T01:04:49.278Z,8.09
2023-01-06T01:05:49.154Z,8.00
2023-01-06T01:06:49.134Z,8.07
2023-01-06T01:07:49.176Z,8.06
2023-01-06T01:08:49.152Z,8.12
2023-01-06T01:09:49.103Z,8.09
2023-01-06T01:10:49.078Z,8.03
2023-01-06T01:11:49.072Z,7.91
2023-01-06T01:12:49.052Z,8.12
2023-01-06T01:13:49.048Z,8.00
2023-01-06T01:14:49.042Z,7.94
2023-01-06T01:15:49.035Z,8.07
2023-01-06T01:16:49.005Z,8.02
2023-01-06T01:17:48.982Z,7.99
2023-01-06T01:18:48.970Z,8.06
2023-01-06T01:19:48.957Z,8.10
2023-01-06T01:20:49.066Z,8.00
2023-01-06T01:21:48.944Z,7.96
2023-01-06T01:22:48.921Z,8.06
2023-01-06T01:23:48.901Z,8.00
2023-01-06T01:24:48.892Z,8.12
2023-01-06T01:25:48.879Z,8.00
2023-01-06T01:26:48.867Z,8.07
2023-01-06T01:27:48.856Z,8.20
2023-01-06T01:28:48.837Z,8.12
2023-01-06T01:29:48.824Z,8.03
2023-01-06T01:30:48.827Z,8.12
2023-01-06T01:31:48.797Z,8.02
2023-01-06T01:32:48.779Z,8.13
2023-01-06T01:33:49.264Z,8.04
2023-01-06T01:34:48.760Z,7.89
2023-01-06T01:35:48.741Z,8.13
2023-01-06T01:36:48.846Z,8.12
2023-01-06T01:37:48.713Z,7.96
2023-01-06T01:38:48.694Z,8.04
2023-01-06T01:39:48.693Z,8.12
2023-01-06T01:40:48.669Z,8.13
2023-01-06T01:41:48.659Z,8.02
2023-01-06T01:42:48.641Z,8.10
2023-01-06T01:43:48.637Z,8.17
2023-01-06T01:44:48.616Z,8.09
2023-01-06T01:45:48.606Z,8.04
2023-01-06T01:46:48.596Z,8.20
2023-01-06T01:47:48.580Z,8.22
2023-01-06T01:48:48.571Z,8.10
2023-01-06T01:49:48.549Z,8.09
2023-01-06T01:50:48.539Z,8.07
2023-01-06T01:51:48.531Z,8.14
2023-01-06T01:52:48.628Z,8.20
2023-01-06T01:53:48.500Z,8.17
2023-01-06T01:54:48.486Z,8.24
2023-01-06T01:55:48.472Z,8.20
2023-01-06T01:56:48.469Z,8.04
2023-01-06T01:57:48.442Z,8.17
2023-01-06T01:58:48.428Z,8.20
2023-01-06T01:59:48.416Z,8.10
2023-01-06T02:00:48.402Z,8.09
2023-01-06T02:01:48.501Z,8.14
2023-01-06T02:02:48.486Z,8.22
2023-01-06T02:03:48.364Z,8.12
2023-01-06T02:04:48.350Z,8.07
2023-01-06T02:05:48.345Z,8.10
2023-01-06T02:06:48.323Z,8.07
2023-01-06T02:07:48.314Z,7.99
2023-01-06T02:08:48.412Z,7.99
2023-01-06T02:09:48.277Z,8.09
2023-01-06T02:10:48.268Z,7.94
2023-01-06T02:11:48.251Z,8.13
2023-01-06T02:12:48.241Z,8.14
2023-01-06T02:13:48.224Z,8.12
2023-01-06T02:14:48.229Z,8.22
2023-01-06T02:15:48.215Z,8.10
2023-01-06T02:16:48.201Z,8.06
2023-01-06T02:17:48.169Z,8.10
2023-01-06T02:18:48.157Z,8.13
2023-01-06T02:19:48.149Z,8.09
2023-01-06T02:20:48.128Z,8.17
2023-01-06T02:21:48.120Z,8.14
2023-01-06T02:22:48.100Z,8.06
2023-01-06T02:23:48.108Z,8.17
2023-01-06T02:24:48.206Z,8.10
2023-01-06T02:25:48.070Z,8.22
2023-01-06T02:26:48.055Z,8.18
2023-01-06T02:27:48.041Z,8.18
2023-01-06T02:28:48.023Z,8.18
2023-01-06T02:29:48.024Z,8.17
2023-01-06T02:30:47.995Z,8.21
2023-01-06T02:31:47.982Z,8.22
2023-01-06T02:32:47.971Z,8.17
2023-01-06T02:33:47.949Z,8.04
2023-01-06T02:34:48.137Z,8.20
2023-01-06T02:35:47.936Z,8.14
2023-01-06T02:36:47.908Z,8.06
2023-01-06T02:37:47.905Z,8.14
2023-01-06T02:38:47.889Z,8.25
2023-01-06T02:39:47.873Z,8.18
2023-01-06T02:40:47.972Z,8.12
2023-01-06T02:41:47.862Z,8.13
2023-01-06T02:42:47.833Z,8.13
2023-01-06T02:43:47.820Z,8.10
2023-01-06T02:44:47.807Z,8.03
2023-01-06T02:45:47.796Z,8.12
2023-01-06T02:46:47.779Z,8.07
2023-01-06T02:47:47.768Z,8.18
2023-01-06T02:48:47.749Z,8.13
2023-01-06T02:49:47.748Z,8.17
2023-01-06T02:50:47.725Z,8.18
2023-01-06T02:51:47.714Z,8.07
2023-01-06T02:52:47.697Z,8.09
2023-01-06T02:53:47.687Z,8.21
2023-01-06T02:54:47.825Z,8.12
2023-01-06T02:55:47.655Z,8.02
2023-01-06T02:56:47.758Z,8.02
2023-01-06T02:57:47.632Z,8.07
2023-01-06T02:58:47.623Z,8.07
2023-01-06T02:59:47.601Z,7.89
2023-01-06T03:00:47.585Z,8.02
2023-01-06T03:01:47.734Z,7.82
2023-01-06T03:02:47.561Z,7.82
2023-01-06T03:03:47.550Z,7.81
2023-01-06T03:04:47.632Z,7.85
2023-01-06T03:05:47.520Z,7.71
2023-01-06T03:06:47.510Z,7.71
2023-01-06T03:07:47.503Z,7.70
2023-01-06T03:08:47.482Z,7.69
2023-01-06T03:09:47.468Z,7.70
2023-01-06T03:10:47.459Z,7.63
2023-01-06T03:11:47.441Z,7.66
2023-01-06T03:12:47.543Z,7.58
2023-01-06T03:13:47.410Z,7.55
2023-01-06T03:14:47.393Z,7.54
2023-01-06T03:15:47.402Z,7.50
2023-01-06T03:16:47.372Z,7.54
2023-01-06T03:17:47.362Z,7.39
2023-01-06T03:18:47.345Z,7.42
2023-01-06T03:19:47.338Z,7.41
2023-01-06T03:20:47.318Z,7.29
2023-01-06T03:21:47.313Z,7.34
2023-01-06T03:22:47.294Z,7.30
2023-01-06T03:23:47.272Z,7.34
2023-01-06T03:24:47.268Z,7.21
2023-01-06T03:25:47.250Z,7.21
2023-01-06T03:26:47.236Z,7.14
2023-01-06T03:27:47.220Z,7.16
2023-01-06T03:28:47.331Z,7.15
2023-01-06T03:29:47.192Z,7.04
2023-01-06T03:30:47.181Z,7.05
2023-01-06T03:31:47.161Z,7.05
2023-01-06T03:32:47.152Z,7.00
2023-01-06T03:33:47.141Z,6.83
2023-01-06T03:34:47.123Z,6.93
2023-01-06T03:35:47.111Z,6.90
2023-01-06T03:36:47.096Z,6.89
2023-01-06T03:37:47.091Z,6.82
2023-01-06T03:38:47.073Z,6.83
2023-01-06T03:39:47.053Z,6.86
2023-01-06T03:40:47.044Z,6.75
2023-01-06T03:41:47.023Z,6.87
2023-01-06T03:42:47.021Z,6.91
2023-01-06T03:43:47.006Z,6.82
2023-01-06T03:44:47.108Z,6.68
2023-01-06T03:45:46.977Z,6.82
2023-01-06T03:46:47.055Z,6.76
2023-01-06T03:47:46.952Z,6.89
2023-01-06T03:48:46.947Z,6.79
2023-01-06T03:49:46.919Z,6.87
2023-01-06T03:50:46.904Z,6.79
2023-01-06T03:51:46.897Z,6.83
2023-01-06T03:52:46.884Z,6.78
2023-01-06T03:53:46.865Z,6.75
2023-01-06T03:54:46.863Z,6.69
2023-01-06T03:55:46.845Z,6.63
2023-01-06T03:56:46.833Z,6.50
2023-01-06T03:57:46.816Z,6.51
2023-01-06T03:58:46.803Z,6.51
2023-01-06T03:59:46.792Z,6.50
2023-01-06T04:00:46.916Z,6.43
2023-01-06T04:01:46.836Z,6.42
2023-01-06T04:02:46.752Z,6.39
2023-01-06T04:03:46.806Z,6.50
2023-01-06T04:04:46.716Z,6.38
2023-01-06T04:05:46.702Z,6.28
2023-01-06T04:06:46.696Z,6.35
2023-01-06T04:07:46.678Z,6.28
2023-01-06T04:08:46.668Z,6.35
2023-01-06T04:09:46.650Z,6.35
2023-01-06T04:10:46.636Z,6.27
2023-01-06T04:11:46.619Z,6.38
2023-01-06T04:12:46.709Z,6.21
2023-01-06T04:13:46.594Z,6.19
2023-01-06T04:14:46.583Z,6.14
2023-01-06T04:15:46.573Z,6.10
2023-01-06T04:16:46.681Z,6.17
2023-01-06T04:17:46.536Z,6.17
2023-01-06T04:18:46.533Z,6.08
2023-01-06T04:19:46.515Z,6.27
2023-01-06T04:20:46.508Z,6.21
2023-01-06T04:21:46.497Z,6.11
2023-01-06T04:22:46.480Z,6.11
2023-01-06T04:23:46.463Z,6.08
2023-01-06T04:24:46.457Z,6.05
2023-01-06T04:25:46.460Z,6.08
2023-01-06T04:26:46.430Z,6.11
2023-01-06T04:27:46.405Z,5.99
2023-01-06T04:28:46.403Z,5.99
2023-01-06T04:29:46.400Z,6.10
2023-01-06T04:30:46.404Z,6.13
2023-01-06T04:31:46.410Z,6.05
2023-01-06T04:32:46.492Z,6.17
2023-01-06T04:33:46.334Z,6.19
2023-01-06T04:34:46.316Z,6.05
2023-01-06T04:35:46.299Z,6.14
2023-01-06T04:36:46.291Z,6.08
2023-01-06T04:37:46.270Z,6.13
2023-01-06T04:38:46.252Z,6.25
2023-01-06T04:39:46.241Z,6.08
2023-01-06T04:40:46.225Z,6.28
2023-01-06T04:41:46.212Z,6.10
2023-01-06T04:42:46.205Z,6.27
2023-01-06T04:43:46.192Z,6.14
2023-01-06T04:44:46.183Z,6.10
2023-01-06T04:45:46.195Z,6.11
2023-01-06T04:46:46.203Z,6.11
2023-01-06T04:47:46.133Z,6.13
2023-01-06T04:48:46.242Z,6.10
2023-01-06T04:49:46.109Z,6.10
2023-01-06T04:50:46.101Z,6.13
2023-01-06T04:51:46.075Z,6.13
2023-01-06T04:52:46.068Z,6.01
2023-01-06T04:53:46.052Z,6.02
2023-01-06T04:54:46.046Z,6.11
2023-01-06T04:55:46.027Z,5.98
2023-01-06T04:56:46.026Z,6.06
2023-01-06T04:57:45.999Z,6.10
2023-01-06T04:58:46.001Z,6.05
2023-01-06T04:59:45.974Z,6.17
2023-01-06T05:00:46.008Z,6.17
2023-01-06T05:01:46.004Z,6.17
2023-01-06T05:02:45.935Z,6.24
2023-01-06T05:03:45.959Z,6.05
2023-01-06T05:04:48.066Z,6.21
2023-01-06T05:05:45.895Z,6.17
2023-01-06T05:06:45.870Z,6.16
2023-01-06T05:07:45.858Z,6.13
2023-01-06T05:08:45.849Z,6.10
2023-01-06T05:09:45.828Z,6.03
2023-01-06T05:10:45.835Z,6.03
2023-01-06T05:11:45.815Z,6.16
2023-01-06T05:12:45.797Z,6.10
2023-01-06T05:13:45.783Z,6.08
2023-01-06T05:14:45.770Z,5.95
2023-01-06T05:15:45.751Z,5.96
2023-01-06T05:16:45.829Z,6.05
2023-01-06T05:17:45.723Z,5.93
2023-01-06T05:18:45.715Z,5.93
2023-01-06T05:19:45.723Z,5.98
2023-01-06T05:20:45.798Z,5.93
2023-01-06T05:21:45.663Z,5.83
2023-01-06T05:22:45.666Z,5.85
2023-01-06T05:23:45.662Z,5.87
2023-01-06T05:24:45.655Z,5.84
2023-01-06T05:25:45.616Z,5.98
2023-01-06T05:26:45.608Z,5.90
2023-01-06T05:27:45.605Z,5.85
2023-01-06T05:28:45.573Z,5.93
2023-01-06T05:29:45.554Z,5.77
2023-01-06T05:30:45.545Z,5.90
2023-01-06T05:31:45.621Z,5.84
2023-01-06T05:32:45.518Z,5.92
2023-01-06T05:33:45.524Z,5.83
2023-01-06T05:34:45.484Z,5.87
2023-01-06T05:35:45.496Z,5.83
2023-01-06T05:36:45.585Z,5.90
2023-01-06T05:37:45.450Z,5.83
2023-01-06T05:38:45.435Z,5.93
2023-01-06T05:39:45.425Z,5.85
2023-01-06T05:40:45.415Z,5.78
2023-01-06T05:41:45.389Z,5.75
2023-01-06T05:42:45.387Z,5.74
2023-01-06T05:43:45.357Z,5.73
2023-01-06T05:44:45.356Z,5.55
2023-01-06T05:45:45.389Z,5.55
2023-01-06T05:46:45.320Z,5.47
2023-01-06T05:47:45.307Z,5.59
2023-01-06T05:48:45.293Z,5.58
2023-01-06T05:49:46.838Z,5.38
2023-01-06T05:50:45.262Z,5.44
2023-01-06T05:51:45.254Z,5.49
2023-01-06T05:52:45.357Z,5.41
2023-01-06T05:53:45.238Z,5.40
2023-01-06T05:54:45.212Z,5.37
2023-01-06T05:55:45.197Z,5.47
2023-01-06T05:56:45.186Z,5.37
2023-01-06T05:57:45.161Z,5.40
2023-01-06T05:58:45.156Z,5.27
2023-01-06T05:59:45.133Z,5.35
2023-01-06T06:00:45.135Z,5.26
2023-01-06T06:01:45.238Z,5.27
2023-01-06T06:02:45.096Z,5.27
2023-01-06T06:03:45.166Z,5.22
2023-01-06T06:04:45.070Z,5.08
2023-01-06T06:05:45.062Z,5.12
2023-01-06T06:06:45.053Z,5.06
2023-01-06T06:07:45.031Z,5.05
2023-01-06T06:08:45.145Z,5.08
2023-01-06T06:09:45.003Z,5.04
2023-01-06T06:10:44.984Z,5.01
2023-01-06T06:11:44.978Z,4.96
2023-01-06T06:12:44.960Z,5.06
2023-01-06T06:13:44.948Z,4.97
2023-01-06T06:14:44.936Z,5.05
2023-01-06T06:15:44.918Z,5.12
2023-01-06T06:16:44.958Z,5.30
2023-01-06T06:17:44.890Z,5.20
2023-01-06T06:18:44.885Z,5.19
2023-01-06T06:19:44.864Z,5.12
2023-01-06T06:20:44.851Z,5.04
2023-01-06T06:21:44.844Z,4.97
2023-01-06T06:22:44.828Z,4.94
2023-01-06T06:23:44.815Z,5.02
2023-01-06T06:24:44.917Z,4.97
2023-01-06T06:25:44.788Z,4.80
2023-01-06T06:26:44.776Z,4.77
2023-01-06T06:27:44.761Z,4.93
2023-01-06T06:28:44.742Z,4.79
2023-01-06T06:29:44.734Z,4.84
2023-01-06T06:30:44.730Z,4.79
2023-01-06T06:31:44.755Z,4.87
2023-01-06T06:32:44.696Z,4.86
2023-01-06T06:33:44.691Z,4.88
2023-01-06T06:34:44.670Z,4.91
2023-01-06T06:35:44.650Z,4.84
2023-01-06T06:36:44.647Z,4.88
2023-01-06T06:37:44.624Z,4.87
2023-01-06T06:38:44.629Z,4.87
2023-01-06T06:39:44.598Z,4.80
2023-01-06T06:40:44.719Z,4.86
2023-01-06T06:41:44.571Z,4.83
2023-01-06T06:42:44.564Z,4.84
2023-01-06T06:43:44.543Z,4.93
2023-01-06T06:44:44.535Z,4.97
2023-01-06T06:45:45.562Z,5.02
2023-01-06T06:46:44.505Z,5.08
2023-01-06T06:47:44.500Z,5.11
2023-01-06T06:48:44.558Z,5.06
2023-01-06T06:49:44.471Z,5.23
2023-01-06T06:50:44.456Z,5.06
2023-01-06T06:51:44.441Z,5.11
2023-01-06T06:52:44.429Z,5.11
2023-01-06T06:53:44.444Z,5.14
2023-01-06T06:54:44.404Z,5.19
2023-01-06T06:55:44.394Z,5.23
2023-01-06T06:56:44.495Z,5.29
2023-01-06T06:57:44.355Z,5.29
2023-01-06T06:58:44.383Z,5.29
2023-01-06T06:59:44.333Z,5.32
2023-01-06T07:00:44.353Z,5.35
2023-01-06T07:01:44.404Z,5.38
2023-01-06T07:02:44.295Z,5.30
2023-01-06T07:03:44.277Z,5.42
2023-01-06T07:04:44.347Z,5.38
2023-01-06T07:05:44.251Z,5.32
2023-01-06T07:06:44.253Z,5.47
2023-01-06T07:07:44.226Z,5.32
2023-01-06T07:08:44.273Z,5.37
2023-01-06T07:09:44.202Z,5.29
2023-01-06T07:10:44.184Z,5.38
2023-01-06T07:11:44.173Z,5.37
2023-01-06T07:12:44.273Z,5.40
2023-01-06T07:13:44.208Z,5.47
2023-01-06T07:14:44.126Z,5.45
2023-01-06T07:15:44.143Z,5.48
2023-01-06T07:16:44.097Z,5.48
2023-01-06T07:17:44.094Z,5.45
2023-01-06T07:18:44.172Z,5.45
2023-01-06T07:19:44.061Z,5.37
2023-01-06T07:20:44.043Z,5.37
2023-01-06T07:21:44.035Z,5.45
2023-01-06T07:22:44.018Z,5.48
2023-01-06T07:23:44.118Z,5.38
2023-01-06T07:24:43.988Z,5.45
2023-01-06T07:25:43.994Z,5.35
2023-01-06T07:26:43.962Z,5.35
2023-01-06T07:27:43.955Z,5.33
2023-01-06T07:28:44.087Z,5.42
2023-01-06T07:29:43.920Z,5.37
2023-01-06T07:30:43.911Z,5.29
2023-01-06T07:31:43.900Z,5.45
2023-01-06T07:32:43.887Z,5.45
2023-01-06T07:33:44.087Z,5.41
2023-01-06T07:34:43.851Z,5.42
2023-01-06T07:35:43.845Z,5.52
2023-01-06T07:36:43.820Z,5.63
2023-01-06T07:37:43.819Z,5.56
2023-01-06T07:38:43.876Z,5.58
2023-01-06T07:39:43.784Z,5.55
2023-01-06T07:40:43.770Z,5.63
2023-01-06T07:41:43.753Z,5.60
2023-01-06T07:42:43.744Z,5.62
2023-01-06T07:43:43.727Z,5.60
2023-01-06T07:44:43.832Z,5.73
2023-01-06T07:45:43.786Z,5.67
2023-01-06T07:46:43.746Z,5.75
2023-01-06T07:47:43.677Z,5.73
2023-01-06T07:48:43.661Z,5.80
2023-01-06T07:49:43.643Z,5.73
2023-01-06T07:50:43.636Z,5.73
2023-01-06T07:51:43.620Z,5.90
2023-01-06T07:52:43.597Z,5.85
2023-01-06T07:53:43.589Z,5.85
2023-01-06T07:54:43.578Z,6.03
2023-01-06T07:55:43.561Z,5.92
2023-01-06T07:56:43.563Z,5.96
2023-01-06T07:57:44.539Z,6.03
2023-01-06T07:58:43.527Z,6.08
2023-01-06T07:59:43.511Z,5.95
2023-01-06T08:00:43.521Z,6.02
2023-01-06T08:01:43.601Z,6.06
2023-01-06T08:02:43.564Z,6.06
2023-01-06T08:03:43.465Z,6.17
2023-01-06T08:04:43.437Z,6.10
2023-01-06T08:05:43.434Z,6.10
2023-01-06T08:06:43.408Z,6.10
2023-01-06T08:07:43.405Z,5.98
2023-01-06T08:08:43.387Z,6.01
2023-01-06T08:09:43.396Z,6.16
2023-01-06T08:10:43.389Z,6.10
2023-01-06T08:11:43.342Z,6.06
2023-01-06T08:12:43.331Z,6.10
2023-01-06T08:13:43.314Z,6.11
2023-01-06T08:14:43.305Z,6.16
2023-01-06T08:15:43.350Z,6.28
2023-01-06T08:16:43.398Z,6.24
2023-01-06T08:17:43.262Z,6.33
2023-01-06T08:18:43.250Z,6.36
2023-01-06T08:19:43.232Z,6.24
2023-01-06T08:20:43.228Z,6.38
2023-01-06T08:21:43.205Z,6.36
2023-01-06T08:22:43.193Z,6.39
2023-01-06T08:23:43.188Z,6.45
2023-01-06T08:24:43.165Z,6.42
2023-01-06T08:25:43.160Z,6.43
2023-01-06T08:26:43.144Z,6.36
2023-01-06T08:27:43.123Z,6.48
2023-01-06T08:28:43.120Z,6.35
2023-01-06T08:29:43.097Z,6.40
2023-01-06T08:30:43.097Z,6.38
2023-01-06T08:31:43.072Z,6.38
2023-01-06T08:32:43.190Z,6.46
2023-01-06T08:33:43.048Z,6.45
2023-01-06T08:34:43.034Z,6.45
2023-01-06T08:35:43.023Z,6.43
2023-01-06T08:36:43.012Z,6.58
2023-01-06T08:37:42.989Z,6.51
2023-01-06T08:38:42.982Z,6.53
2023-01-06T08:39:42.964Z,6.48
2023-01-06T08:40:42.953Z,6.55
2023-01-06T08:41:42.936Z,6.57
2023-01-06T08:42:42.923Z,6.55
2023-01-06T08:43:44.923Z,6.53
2023-01-06T08:44:42.894Z,6.60
2023-01-06T08:45:42.893Z,6.68
2023-01-06T08:46:42.992Z,6.63
2023-01-06T08:47:42.860Z,6.73
2023-01-06T08:48:42.955Z,6.60
2023-01-06T08:49:42.833Z,6.65
2023-01-06T08:50:42.811Z,6.83
2023-01-06T08:51:43.116Z,6.87
2023-01-06T08:52:42.787Z,6.91
2023-01-06T08:53:42.777Z,6.94
2023-01-06T08:54:42.758Z,7.08
2023-01-06T08:55:42.743Z,6.91
2023-01-06T08:56:42.734Z,6.82
2023-01-06T08:57:42.718Z,6.99
2023-01-06T08:58:42.703Z,7.09
2023-01-06T08:59:42.704Z,7.07
2023-01-06T09:00:42.673Z,7.04
2023-01-06T09:01:42.780Z,7.15
2023-01-06T09:02:42.653Z,7.26
2023-01-06T09:03:42.643Z,7.26
2023-01-06T09:04:42.887Z,7.24
2023-01-06T09:05:42.611Z,7.16
2023-01-06T09:06:42.603Z,7.21
2023-01-06T09:07:42.583Z,7.26
2023-01-06T09:08:42.573Z,7.30
2023-01-06T09:09:42.555Z,7.33
2023-01-06T09:10:42.549Z,7.27
2023-01-06T09:11:42.612Z,7.29
2023-01-06T09:12:42.523Z,7.41
2023-01-06T09:13:42.544Z,7.30
2023-01-06T09:14:42.486Z,7.44
2023-01-06T09:15:42.516Z,7.36
2023-01-06T09:16:42.456Z,7.42
2023-01-06T09:17:42.447Z,7.44
2023-01-06T09:18:42.435Z,7.41
2023-01-06T09:19:42.425Z,7.55
2023-01-06T09:20:42.521Z,7.52
2023-01-06T09:21:42.396Z,7.71
2023-01-06T09:22:42.382Z,7.69
2023-01-06T09:23:42.372Z,7.73
2023-01-06T09:24:42.348Z,7.62
2023-01-06T09:25:42.345Z,7.85
2023-01-06T09:26:42.327Z,7.82
2023-01-06T09:27:42.315Z,7.86
2023-01-06T09:28:42.306Z,7.77
2023-01-06T09:29:42.292Z,7.99
2023-01-06T09:30:42.273Z,7.95
2023-01-06T09:31:42.257Z,8.03
2023-01-06T09:32:42.249Z,8.09
2023-01-06T09:33:42.233Z,8.07
2023-01-06T09:34:42.218Z,8.20
2023-01-06T09:35:42.207Z,8.27
2023-01-06T09:36:42.208Z,8.46
2023-01-06T09:37:42.170Z,8.32
2023-01-06T09:38:42.165Z,8.32
2023-01-06T09:39:42.155Z,8.47
2023-01-06T09:40:42.140Z,8.46
2023-01-06T09:41:42.131Z,8.46
2023-01-06T09:42:42.111Z,8.54
2023-01-06T09:43:42.103Z,8.58
2023-01-06T09:44:42.084Z,8.58
2023-01-06T09:45:42.067Z,8.65
2023-01-06T09:46:42.129Z,8.39
2023-01-06T09:47:42.039Z,8.63
2023-01-06T09:48:42.023Z,8.64
2023-01-06T09:49:42.012Z,8.58
2023-01-06T09:50:42.001Z,8.76
2023-01-06T09:51:41.980Z,8.75
2023-01-06T09:52:42.083Z,8.85
2023-01-06T09:53:41.960Z,8.98
2023-01-06T09:54:41.945Z,9.17
2023-01-06T09:55:41.935Z,9.24
2023-01-06T09:56:41.915Z,9.42
2023-01-06T09:57:41.911Z,9.49
2023-01-06T09:58:41.902Z,9.58
2023-01-06T09:59:41.880Z,9.59
2023-01-06T10:00:41.872Z,9.73
2023-01-06T10:01:42.004Z,9.85
2023-01-06T10:02:41.837Z,9.81
2023-01-06T10:03:41.863Z,9.95
2023-01-06T10:04:41.814Z,9.89
2023-01-06T10:05:41.857Z,9.81
2023-01-06T10:06:41.787Z,9.81
2023-01-06T10:07:41.773Z,9.75
2023-01-06T10:08:41.871Z,9.83
2023-01-06T10:09:41.746Z,9.75
2023-01-06T10:10:41.723Z,9.77
2023-01-06T10:11:41.715Z,9.98
2023-01-06T10:12:41.695Z,9.85
2023-01-06T10:13:41.683Z,9.88
2023-01-06T10:14:41.673Z,9.95
2023-01-06T10:15:41.657Z,10.10
2023-01-06T10:16:41.643Z,10.16
2023-01-06T10:17:41.641Z,10.14
2023-01-06T10:18:41.619Z,10.20
2023-01-06T10:19:41.605Z,10.28
2023-01-06T10:20:41.587Z,10.32
2023-01-06T10:21:41.579Z,10.31
2023-01-06T10:22:41.562Z,10.39
2023-01-06T10:23:41.558Z,10.38
2023-01-06T10:24:41.667Z,10.54
2023-01-06T10:25:41.535Z,10.52
2023-01-06T10:26:41.509Z,10.66
2023-01-06T10:27:41.520Z,10.66
2023-01-06T10:28:41.472Z,10.60
2023-01-06T10:29:41.464Z,10.49
2023-01-06T10:30:44.282Z,10.60
2023-01-06T10:31:41.483Z,10.65
2023-01-06T10:32:42.881Z,10.72
2023-01-06T10:33:41.419Z,10.75
2023-01-06T10:34:41.405Z,10.87
2023-01-06T10:35:41.384Z,10.88
2023-01-06T10:36:41.372Z,10.88
2023-01-06T10:37:41.356Z,10.84
2023-01-06T10:38:41.352Z,10.75
2023-01-06T10:39:41.331Z,10.88
2023-01-06T10:40:41.336Z,10.76
2023-01-06T10:41:41.326Z,10.84
2023-01-06T10:42:41.296Z,10.83
2023-01-06T10:43:41.283Z,10.76
2023-01-06T10:44:41.263Z,10.88
2023-01-06T10:45:41.261Z,10.72
2023-01-06T10:46:41.313Z,10.78
2023-01-06T10:47:41.227Z,10.72
2023-01-06T10:48:41.206Z,10.83
2023-01-06T10:49:41.199Z,10.91
2023-01-06T10:50:41.188Z,10.87
2023-01-06T10:51:41.168Z,10.86
2023-01-06T10:52:41.161Z,10.76
2023-01-06T10:53:41.138Z,10.86
2023-01-06T10:54:41.130Z,10.90
2023-01-06T10:55:41.119Z,11.03
2023-01-06T10:56:41.221Z,11.06
2023-01-06T10:57:41.100Z,11.12
2023-01-06T10:58:41.079Z,11.30
2023-01-06T10:59:41.170Z,11.36
2023-01-06T11:00:41.084Z,11.35
2023-01-06T11:01:41.211Z,11.33
2023-01-06T11:02:41.184Z,11.36
2023-01-06T11:03:41.176Z,11.38
2023-01-06T11:04:40.984Z,11.45
2023-01-06T11:05:40.995Z,11.46
2023-01-06T11:06:40.971Z,11.66
2023-01-06T11:07:41.076Z,11.72
2023-01-06T11:08:40.940Z,11.88
2023-01-06T11:09:40.939Z,11.90
2023-01-06T11:10:40.910Z,11.78
2023-01-06T11:11:40.903Z,11.93
2023-01-06T11:12:40.997Z,12.08
2023-01-06T11:13:40.875Z,12.18
2023-01-06T11:14:40.853Z,12.22
2023-01-06T11:15:40.843Z,12.16
2023-01-06T11:16:40.858Z,12.08
2023-01-06T11:17:40.831Z,11.93
2023-01-06T11:18:40.794Z,11.82
2023-01-06T11:19:40.797Z,11.59
2023-01-06T11:20:40.771Z,11.45
2023-01-06T11:21:40.763Z,11.46
2023-01-06T11:22:40.756Z,11.33
2023-01-06T11:23:41.260Z,11.36
2023-01-06T11:24:40.723Z,11.48
2023-01-06T11:25:40.711Z,11.49
2023-01-06T11:26:40.697Z,11.48
2023-01-06T11:27:40.705Z,11.45
2023-01-06T11:28:40.788Z,11.28
2023-01-06T11:29:40.656Z,11.23
2023-01-06T11:30:40.643Z,11.28
2023-01-06T11:31:40.645Z,11.30
2023-01-06T11:32:40.659Z,11.30
2023-01-06T11:33:40.597Z,11.09
2023-01-06T11:34:40.585Z,11.12
2023-01-06T11:35:40.636Z,11.13
2023-01-06T11:36:40.614Z,10.99
2023-01-06T11:37:40.631Z,11.11
2023-01-06T11:38:40.538Z,11.09
2023-01-06T11:39:41.448Z,11.02
2023-01-06T11:40:40.651Z,11.08
2023-01-06T11:41:40.701Z,11.02
2023-01-06T11:43:40.466Z,11.28
2023-01-06T11:44:40.574Z,11.17
2023-01-06T11:45:40.531Z,11.19
2023-01-06T11:46:40.424Z,11.20
2023-01-06T11:47:40.490Z,11.24
2023-01-06T11:48:40.394Z,11.02
2023-01-06T11:49:40.378Z,11.12
2023-01-06T11:50:40.369Z,11.02
2023-01-06T11:51:40.349Z,11.08
2023-01-06T11:52:40.361Z,11.09
2023-01-06T11:53:40.386Z,10.95
2023-01-06T11:54:40.437Z,10.95
2023-01-06T11:55:40.366Z,11.05
2023-01-06T11:56:40.509Z,11.13
2023-01-06T11:57:40.343Z,11.03
2023-01-06T11:58:40.294Z,11.12
2023-01-06T11:59:40.246Z,11.05
2023-01-06T12:00:40.387Z,11.05
2023-01-06T12:01:40.303Z,11.17
2023-01-06T12:02:40.240Z,11.17
2023-01-06T12:03:40.241Z,11.17
2023-01-06T12:04:40.179Z,11.26
2023-01-06T12:05:40.171Z,11.33
2023-01-06T12:06:40.154Z,11.23
2023-01-06T12:07:40.164Z,11.33
2023-01-06T12:08:40.134Z,11.30
2023-01-06T12:09:40.110Z,11.24
2023-01-06T12:10:40.105Z,11.28
2023-01-06T12:11:40.091Z,11.46
2023-01-06T12:12:40.069Z,11.53
2023-01-06T12:13:44.903Z,11.49
2023-01-06T12:14:41.069Z,11.54
2023-01-06T12:15:40.036Z,11.39
2023-01-06T12:16:40.368Z,11.53
2023-01-06T12:17:40.282Z,11.48
2023-01-06T12:18:39.992Z,11.63
2023-01-06T12:19:39.977Z,11.74
2023-01-06T12:20:39.969Z,11.64
2023-01-06T12:21:39.950Z,11.62
2023-01-06T12:22:39.941Z,11.49
2023-01-06T12:23:39.939Z,11.62
2023-01-06T12:24:39.916Z,11.72
2023-01-06T12:25:39.904Z,11.78
2023-01-06T12:26:39.907Z,11.84
2023-01-06T12:27:39.866Z,11.78
2023-01-06T12:30:58.967Z,11.60
2023-01-06T12:31:58.942Z,11.53
2023-01-06T12:32:58.817Z,11.67
2023-01-06T12:33:58.802Z,11.54
2023-01-06T12:34:58.792Z,11.56
2023-01-06T12:35:58.780Z,11.41
2023-01-06T12:36:58.766Z,11.48
2023-01-06T12:37:58.754Z,11.39
2023-01-06T12:38:58.750Z,11.41
2023-01-06T12:39:58.729Z,11.38
2023-01-06T12:40:58.728Z,11.45
2023-01-06T12:41:58.705Z,11.56
2023-01-06T12:42:58.696Z,11.45
2023-01-06T12:43:58.666Z,11.49
2023-01-06T12:44:58.655Z,11.49
2023-01-06T12:45:58.693Z,11.51
2023-01-06T12:46:58.631Z,11.49
2023-01-06T12:47:58.738Z,11.49
2023-01-06T12:48:58.605Z,11.54
2023-01-06T12:49:58.614Z,11.57
2023-01-06T12:50:58.574Z,11.60
2023-01-06T12:51:58.574Z,11.49
2023-01-06T12:52:59.872Z,11.56
2023-01-06T12:53:58.532Z,11.54
2023-01-06T12:54:58.525Z,11.54
2023-01-06T12:55:58.514Z,11.49
2023-01-06T12:56:58.497Z,11.45
2023-01-06T12:57:58.489Z,11.53
2023-01-06T12:58:58.474Z,11.36
2023-01-06T12:59:58.467Z,11.38
2023-01-06T13:00:58.480Z,11.27
2023-01-06T13:01:58.577Z,11.23
2023-01-06T13:02:58.423Z,11.19
2023-01-06T13:03:58.581Z,11.21
2023-01-06T13:04:58.394Z,11.19
2023-01-06T13:05:58.381Z,11.12
2023-01-06T13:06:58.362Z,11.16
2023-01-06T13:07:58.349Z,11.06
2023-01-06T13:08:58.335Z,11.12
2023-01-06T13:09:58.326Z,11.05
2023-01-06T13:10:58.314Z,11.08
2023-01-06T13:11:58.321Z,11.12
2023-01-06T13:12:58.287Z,11.17
2023-01-06T13:13:58.276Z,11.17
2023-01-06T13:14:58.256Z,11.13
2023-01-06T13:15:58.251Z,11.19